Flight Track Log - Related Links

Times and Time Zones

All times are in EDT time to prevent confusion due to time zone crossing. See the DAL268 flight status page for this flight to view local times or setup timezone preferences in your user account.

Time Position Orientation Groundspeed Altitude Reporting Facility
EDT Latitude Longitude Course Direction KTS MPH feet Rate Location/Type
Wed 02:31:41 PM 37.6070 -122.3840 North 11 13  Level FlightAware ADS-B
Wed 02:34:52 PM 37.6060 -122.3830 142° Southeast 49 Level FlightAware ADS-B
Wed 02:37:00 PM 37.8194 -122.1640 38° Northeast  Level FlightAware Approximate
Wed 02:38:00 PM 37.9192 -122.0641 38° Northeast  Level FlightAware Approximate
Wed 02:39:00 PM 38.0101 -121.9600 35° Northeast  Level FlightAware Approximate
Wed 02:40:00 PM 38.1148 -121.8683 35° Northeast  Level FlightAware Approximate
Wed 02:41:00 PM 38.2149 -121.7684 38° Northeast  Level FlightAware Approximate
Wed 02:43:21 PM 37.6110 -122.3780 31° Northeast 92 106  Level FlightAware ADS-B
Wed 02:43:56 PM 37.6329 -122.3640 27° Northeast 174 200 600 1,077 Climbing FlightAware ADS-B
Wed 02:44:00 PM 37.6355 -122.3620 31° Northeast 175 201 700 2,250 Climbing FlightAware ADS-B
Wed 02:44:04 PM 37.6383 -122.3590 40° Northeast 178 205 900 3,429 Climbing FlightAware ADS-B
Wed 02:44:07 PM 37.6400 -122.3570 43° Northeast 181 208 1,100 3,333 Climbing FlightAware ADS-B
Wed 02:44:13 PM 37.6431 -122.3520 52° Northeast 177 204 1,400 2,571 Climbing FlightAware ADS-B
Wed 02:44:21 PM 37.6471 -122.3460 50° Northeast 180 207 1,700 2,000 Climbing FlightAware ADS-B
Wed 02:44:31 PM 37.6535 -122.3380 45° Northeast 192 221 2,000 1,500 Climbing FlightAware ADS-B
Wed 02:44:45 PM 37.6622 -122.3260 48° Northeast 214 246 2,300 1,448 Climbing FlightAware ADS-B
Wed 02:45:00 PM 37.6732 -122.3120 45° Northeast 233 268 2,700 1,600 Climbing FlightAware ADS-B
Wed 02:45:15 PM 37.6852 -122.2950 48° Northeast 257 296 3,100 2,100 Climbing FlightAware ADS-B
Wed 02:45:40 PM 37.7062 -122.2660 48° Northeast 277 319 4,100 2,933 Climbing FlightAware ADS-B
Wed 02:46:00 PM 37.7232 -122.2440 46° Northeast 276 318 5,300 3,500 Climbing FlightAware ADS-B
Wed 02:46:16 PM 37.7378 -122.2240 47° Northeast 278 320 6,200 3,000 Climbing FlightAware ADS-B
Wed 02:46:28 PM 37.7490 -122.2120 40° Northeast 284 327 6,700 2,286 Climbing FlightAware ADS-B
Wed 02:46:37 PM 37.7595 -122.2010 40° Northeast 294 338 7,000 2,087 Climbing FlightAware ADS-B
Wed 02:46:51 PM 37.7740 -122.1870 37° Northeast 303 349 7,500 2,690 Climbing FlightAware ADS-B
Wed 02:47:06 PM 37.7915 -122.1710 36° Northeast 305 351 8,300 3,000 Climbing FlightAware ADS-B
Wed 02:47:21 PM 37.8088 -122.1540 38° Northeast 309 356 9,000 2,323 Climbing FlightAware ADS-B
Wed 02:47:37 PM 37.8265 -122.1370 37° Northeast 320 368 9,500 2,125 Climbing FlightAware ADS-B
Wed 02:48:09 PM 37.8657 -122.1000 37° Northeast 336 387 10,700 1,935 Climbing FlightAware ADS-B
Wed 02:48:39 PM 37.9059 -122.0630 36° Northeast 361 415 11,500 1,574 Climbing FlightAware ADS-B
Wed 02:49:10 PM 37.9483 -122.0230 37° Northeast 390 449 12,300 1,355 Climbing FlightAware ADS-B
Wed 02:49:41 PM 37.9949 -121.9790 37° Northeast 417 480 12,900 2,362 Climbing FlightAware ADS-B
Wed 02:50:44 PM 38.0860 -121.8920 37° Northeast 410 472 16,000 2,432 Climbing FlightAware ADS-B
Wed 02:51:32 PM 38.1630 -121.8200 36° Northeast 436 502 17,400 1,931 Climbing FlightAware ADS-B
Wed 02:52:11 PM 38.2260 -121.7600 37° Northeast 440 506 18,800 1,778 Climbing FlightAware ADS-B
Wed 02:52:26 PM 38.2549 -121.7320 37° Northeast 447 514 19,000 414 Climbing FlightAware ADS-B
Wed 02:52:40 PM 38.2773 -121.7080 40° Northeast 451 519 19,000  Level FlightAware ADS-B
Wed 02:53:24 PM 38.3284 -121.6110 56° Northeast 448 516 19,000 171 Level FlightAware ADS-B
Wed 02:53:50 PM 38.3554 -121.5530 59° Northeast 449 517 19,200 1,368 Climbing FlightAware ADS-B
Wed 02:54:21 PM 38.3900 -121.4850 57° Northeast 449 517 20,300 1,905 Climbing FlightAware ADS-B
Wed 02:54:53 PM 38.4256 -121.4100 59° Northeast 449 517 21,200 1,714 Climbing FlightAware ADS-B
Wed 02:55:24 PM 38.4592 -121.3390 59° Northeast 468 539 22,100 1,714 Climbing FlightAware ADS-B
Wed 02:55:56 PM 38.4949 -121.2630 59° Northeast 474 545 23,000 1,714 Climbing FlightAware ADS-B
Wed 02:56:27 PM 38.5300 -121.1890 59° Northeast 480 552 23,900 1,765 Climbing FlightAware ADS-B
Wed 02:56:47 PM 38.5527 -121.1390 60° Northeast 480 552 24,500 1,688 Climbing FlightAware ADS-B
Wed 02:57:31 PM 38.6041 -121.0300 59° Northeast 489 563 25,700 1,538 Climbing FlightAware ADS-B
Wed 02:58:05 PM 38.6440 -120.9440 59° Northeast 496 571 26,500 1,433 Climbing FlightAware ADS-B
Wed 02:58:38 PM 38.6825 -120.8620 59° Northeast 500 575 27,300 1,304 Climbing FlightAware ADS-B
Wed 02:59:14 PM 38.7240 -120.7730 59° Northeast 503 579 28,000 1,367 Climbing FlightAware ADS-B
Wed 02:59:57 PM 38.7750 -120.6620 59° Northeast 504 580 29,100 1,500 Climbing FlightAware ADS-B
Wed 03:00:38 PM 38.8220 -120.5610 59° Northeast 503 579 30,100 1,714 Climbing FlightAware ADS-B
Wed 03:01:21 PM 38.8750 -120.4460 59° Northeast 495 570 31,500 1,590 Climbing FlightAware ADS-B
Wed 03:02:01 PM 38.9210 -120.3450 60° Northeast 497 572 32,300 1,047 Climbing FlightAware ADS-B
Wed 03:02:47 PM 38.9740 -120.2300 59° Northeast 498 573 33,000 1,059 Climbing FlightAware ADS-B
Wed 03:03:26 PM 39.0200 -120.1290 60° Northeast 498 573 33,800 900 Climbing FlightAware ADS-B
Wed 03:04:07 PM 39.0670 -120.0240 60° Northeast 513 590 34,200 825 Climbing FlightAware ADS-B
Wed 03:04:46 PM 39.1160 -119.9180 59° Northeast 514 592 34,900 1,050 Climbing FlightAware ADS-B
Wed 03:05:27 PM 39.1630 -119.8130 60° Northeast 516 594 35,600 809 Climbing FlightAware ADS-B
Wed 03:06:15 PM 39.2150 -119.6970 60° Northeast 521 600 36,100 786 Climbing FlightAware ADS-B
Wed 03:06:51 PM 39.2600 -119.5960 60° Northeast 521 600 36,700 675 Climbing FlightAware ADS-B
Wed 03:07:35 PM 39.3100 -119.4840 60° Northeast 519 597 37,000 202 Climbing FlightAware ADS-B
Wed 03:08:20 PM 39.3630 -119.3650 60° Northeast 524 603 37,000  Level FlightAware ADS-B
Wed 03:09:14 PM 39.4150 -119.2490 60° Northeast 524 603 37,000  Level FlightAware ADS-B
Wed 03:10:56 PM 39.5470 -118.9490 60° Northeast 524 603 37,000  Level FlightAware ADS-B
Wed 03:11:38 PM 39.5910 -118.8520 59° Northeast 524 603 37,000  Level FlightAware ADS-B
Wed 03:12:15 PM 39.6290 -118.7660 60° Northeast 524 603 37,000  Level FlightAware ADS-B
Wed 03:13:03 PM 39.6780 -118.6550 60° Northeast 524 603 37,000  Level FlightAware ADS-B
Wed 03:13:40 PM 39.7160 -118.5690 60° Northeast 524 603 37,000  Level FlightAware ADS-B
Wed 03:14:28 PM 39.7660 -118.4580 60° Northeast 524 603 37,000  Level FlightAware ADS-B
Wed 03:15:04 PM 39.8030 -118.3740 60° Northeast 524 603 37,000  Level FlightAware ADS-B
Wed 03:15:53 PM 39.8530 -118.2600 60° Northeast 524 603 37,000  Level FlightAware ADS-B
Wed 03:16:31 PM 39.8920 -118.1720 60° Northeast 524 603 37,000  Level FlightAware ADS-B
Wed 03:17:07 PM 39.9290 -118.0880 60° Northeast 524 603 37,000  Level FlightAware ADS-B
Wed 03:17:54 PM 39.9780 -117.9790 60° Northeast 524 603 37,000  Level FlightAware ADS-B
Wed 03:18:32 PM 40.0170 -117.8900 60° Northeast 524 603 37,000  Level FlightAware ADS-B
Wed 03:19:18 PM 40.0640 -117.7830 60° Northeast 524 603 37,000  Level FlightAware ADS-B
Wed 03:19:54 PM 40.1010 -117.6990 60° Northeast 524 603 37,000  Level FlightAware ADS-B
Wed 03:20:38 PM 40.2406 -117.3247 60° Northeast 538 619 37,000  Level Oakland Center
Wed 03:21:39 PM 40.3203 -117.1325 61° Northeast 537 618 37,000  Level Oakland Center
Wed 03:22:41 PM 40.3928 -116.9569 61° Northeast 541 623 37,000  Level Oakland Center
Wed 03:23:42 PM 40.4633 -116.7806 62° Northeast 543 625 37,000  Level Oakland Center
Wed 03:24:44 PM 40.5317 -116.6156 61° Northeast 549 632 37,000  Level Oakland Center
Wed 03:25:45 PM 40.6100 -116.4206 62° Northeast 543 625 37,000  Level Oakland Center
Wed 03:27:00 PM 40.7000 -116.1958 62° Northeast 545 627 37,000  Level Salt Lake Center
Wed 03:28:00 PM 40.7627 -116.0335 63° Northeast  Level FlightAware Approximate
Wed 03:28:02 PM 40.7683 -116.0275 63° Northeast 545 627 37,000  Level Salt Lake Center
Wed 03:29:04 PM 40.8350 -115.8606 62° Northeast 541 623 37,000  Level Salt Lake Center
Wed 03:30:06 PM 40.9119 -115.6636 63° Northeast 540 621 37,000  Level Salt Lake Center
Wed 03:31:08 PM 40.9789 -115.4947 62° Northeast 543 625 37,000  Level Salt Lake Center
Wed 03:32:10 PM 41.0564 -115.2972 62° Northeast 542 624 37,000  Level Salt Lake Center
Wed 03:33:11 PM 41.1206 -115.1272 63° Northeast 542 624 37,000  Level Salt Lake Center
Wed 03:34:13 PM 41.1978 -114.9283 63° Northeast 542 624 37,000  Level Salt Lake Center
Wed 03:35:15 PM 41.2581 -114.7697 63° Northeast 542 624 37,000  Level Salt Lake Center
Wed 03:36:17 PM 41.3389 -114.5550 63° Northeast 542 624 37,000  Level Salt Lake Center
Wed 03:42:39 PM 41.7670 -113.4010 63° Northeast 544 626 37,000  Level FlightAware ADS-B
Wed 03:43:19 PM 41.8110 -113.2800 64° Northeast 544 626 37,000  Level FlightAware ADS-B
Wed 03:43:58 PM 41.8460 -113.1840 64° Northeast 544 626 37,000  Level FlightAware ADS-B
Wed 03:44:53 PM 41.8980 -113.0420 64° Northeast 544 626 37,000  Level FlightAware ADS-B
Wed 03:45:39 PM 41.9410 -112.9230 64° Northeast 544 626 37,000  Level FlightAware ADS-B
Wed 03:46:27 PM 41.9860 -112.7990 64° Northeast 544 626 37,000  Level FlightAware ADS-B
Wed 03:47:00 PM 42.0170 -112.7130 64° Northeast 544 626 37,000  Level FlightAware ADS-B
Wed 03:47:49 PM 42.0630 -112.5870 64° Northeast 544 626 37,000  Level FlightAware ADS-B
Wed 03:48:25 PM 42.0960 -112.4930 65° Northeast 544 626 37,000  Level FlightAware ADS-B
Wed 03:49:14 PM 42.1420 -112.3660 64° Northeast 544 626 37,000  Level FlightAware ADS-B
Wed 03:49:48 PM 42.1740 -112.2780 64° Northeast 544 626 37,000  Level FlightAware ADS-B
Wed 03:50:49 PM 42.2310 -112.1200 64° Northeast 544 626 37,000  Level FlightAware ADS-B
Wed 03:51:30 PM 42.2700 -112.0130 64° Northeast 544 626 37,000  Level FlightAware ADS-B
Wed 03:52:30 PM 42.3260 -111.8570 64° Northeast 544 626 37,000  Level FlightAware ADS-B
Wed 03:53:07 PM 42.3610 -111.7610 64° Northeast 544 626 37,000  Level FlightAware ADS-B
Wed 03:53:47 PM 42.4772 -111.3742 64° Northeast 544 626 37,000  Level Salt Lake Center
Wed 03:54:49 PM 42.5400 -111.1883 65° Northeast 544 626 37,000  Level Salt Lake Center
Wed 03:55:50 PM 42.6025 -111.0011 66° East 545 627 37,000  Level Salt Lake Center
Wed 03:56:52 PM 42.6731 -110.7908 65° Northeast 547 629 37,000  Level Salt Lake Center
Wed 03:57:54 PM 42.7328 -110.6083 66° East 542 624 37,000  Level Salt Lake Center
Wed 03:58:55 PM 42.7919 -110.4292 66° East 543 625 37,000  Level Salt Lake Center
Wed 03:59:57 PM 42.8600 -110.2200 66° East 543 625 37,000  Level Salt Lake Center
Wed 04:00:59 PM 42.9178 -110.0397 66° East 543 625 37,000  Level Salt Lake Center
Wed 04:02:00 PM 42.9869 -109.8242 66° East 545 627 37,000  Level Salt Lake Center
Wed 04:03:02 PM 43.0456 -109.6450 66° East 542 624 37,000  Level Salt Lake Center
Wed 04:04:04 PM 43.1014 -109.4622 67° East 543 625 37,000  Level Salt Lake Center
Wed 04:05:05 PM 43.1672 -109.2500 67° East 544 626 37,000  Level Salt Lake Center
Wed 04:06:07 PM 43.2244 -109.0678 67° East 544 626 37,000  Level Salt Lake Center
Wed 04:07:09 PM 43.2903 -108.8556 67° East 543 625 37,000  Level Salt Lake Center
Wed 04:08:11 PM 43.3464 -108.6756 67° East 539 620 37,000  Level Salt Lake Center
Wed 04:09:12 PM 43.4114 -108.4633 67° East 539 620 37,000  Level Salt Lake Center
Wed 04:10:14 PM 43.4658 -108.2783 68° East 544 626 37,000  Level Salt Lake Center
Wed 04:11:16 PM 43.5278 -108.0658 68° East 542 624 37,000  Level Salt Lake Center
Wed 04:12:17 PM 43.5819 -107.8836 68° East 540 621 37,000  Level Salt Lake Center
Wed 04:13:19 PM 43.6358 -107.6994 68° East 540 621 37,000  Level Salt Lake Center
Wed 04:14:21 PM 43.6981 -107.4847 68° East 541 623 37,000  Level Salt Lake Center
Wed 04:15:22 PM 43.7514 -107.3000 68° East 542 624 37,000  Level Salt Lake Center
Wed 04:16:21 PM 43.8069 -107.1122 68° East 544 626 37,000  Level Denver Center
Wed 04:17:22 PM 43.8686 -106.8975 68° East 540 621 37,000  Level Denver Center
Wed 04:18:24 PM 43.9208 -106.7125 69° East 540 621 37,000  Level Denver Center
Wed 04:19:26 PM 43.9817 -106.4947 69° East 542 624 37,000  Level Denver Center
Wed 04:20:28 PM 44.0172 -106.3058 75° East 533 613 37,000  Level Denver Center
Wed 04:21:29 PM 44.0664 -106.0867 73° East 531 611 37,000  Level Denver Center
Wed 04:22:31 PM 44.1097 -105.8947 72° East 536 617 37,000  Level Denver Center
Wed 04:23:33 PM 44.1561 -105.6733 74° East 537 618 37,000  Level Denver Center
Wed 04:24:34 PM 44.1950 -105.4828 74° East 537 618 37,000  Level Denver Center
Wed 04:25:36 PM 44.2414 -105.2686 73° East 534 615 37,000  Level Denver Center
Wed 04:26:38 PM 44.2803 -105.0783 74° East 532 612 37,000  Level Denver Center
Wed 04:27:39 PM 44.3186 -104.8900 74° East 528 608 37,000  Level Denver Center
Wed 04:28:41 PM 44.3628 -104.6689 74° East 528 608 37,000  Level Denver Center
Wed 04:29:43 PM 44.3997 -104.4803 75° East 526 605 37,000  Level Denver Center
Wed 04:30:45 PM 44.4436 -104.2575 75° East 531 611 37,000  Level Denver Center
Wed 04:31:46 PM 44.4800 -104.0669 75° East 531 611 37,000  Level Denver Center
Wed 04:32:48 PM 44.5225 -103.8450 75° East 527 606 37,000  Level Denver Center
Wed 04:33:50 PM 44.5586 -103.6531 75° East 530 610 37,000  Level Denver Center
Wed 04:34:51 PM 44.5967 -103.4475 75° East 519 597 37,000  Level Denver Center
Wed 04:35:53 PM 44.6336 -103.2500 75° East 522 601 37,000  Level Denver Center
Wed 04:36:55 PM 44.6714 -103.0536 75° East 520 598 37,000  Level Denver Center
Wed 04:37:57 PM 44.7061 -102.8581 76° East 518 596 37,000  Level Denver Center
Wed 04:38:58 PM 44.7411 -102.6617 76° East 519 597 37,000  Level Denver Center
Wed 04:39:24 PM 44.7544 -102.5822 77° East 519 597 37,000  Level Minneapolis Center
Wed 04:40:26 PM 44.7956 -102.3481 76° East 516 594 37,000  Level Minneapolis Center
Wed 04:41:28 PM 44.8308 -102.1533 76° East 514 592 37,000  Level Minneapolis Center
Wed 04:42:04 PM 44.8517 -102.0372 76° East 511 588 37,000  Level Denver Center
Wed 04:42:30 PM 44.8633 -101.9600 78° East 510 587 37,000  Level Minneapolis Center
Wed 04:43:32 PM 44.8964 -101.7669 76° East 508 585 37,000  Level Minneapolis Center
Wed 04:44:34 PM 44.9289 -101.5739 77° East 507 583 37,000  Level Minneapolis Center
Wed 04:45:36 PM 44.9603 -101.3811 77° East 504 580 37,000  Level Minneapolis Center
Wed 04:46:38 PM 44.9983 -101.1517 77° East 502 578 37,000  Level Minneapolis Center
Wed 04:47:40 PM 45.0319 -100.9586 76° East 504 580 37,000  Level Minneapolis Center
Wed 04:48:42 PM 45.0631 -100.7658 77° East 503 579 37,000  Level Minneapolis Center
Wed 04:49:44 PM 45.0936 -100.5719 77° East 504 580 37,000  Level Minneapolis Center
Wed 04:50:47 PM 45.1247 -100.3764 77° East 506 582 37,000  Level Minneapolis Center
Wed 04:51:49 PM 45.1542 -100.1792 78° East 506 582 37,000  Level Minneapolis Center
Wed 04:52:51 PM 45.1878 -99.9786 77° East 508 585 37,000  Level Minneapolis Center
Wed 04:53:53 PM 45.2164 -99.7775 79° East 509 586 37,000  Level Minneapolis Center
Wed 04:59:25 PM 45.3740 -98.6840 79° East 494 568 37,000  Level FlightAware ADS-B
Wed 05:00:07 PM 45.3910 -98.5560 79° East 493 567 37,000  Level FlightAware ADS-B
Wed 05:01:00 PM 45.4130 -98.4060 78° East 492 566 37,000  Level FlightAware ADS-B
Wed 05:01:41 PM 45.4360 -98.2540 78° East 491 565 37,000  Level FlightAware ADS-B
Wed 05:02:58 PM 45.4710 -98.0390 77° East 491 565 37,000  Level FlightAware ADS-B
Wed 05:03:34 PM 45.4860 -97.9420 78° East 491 565 37,000  Level FlightAware ADS-B
Wed 05:04:21 PM 45.5070 -97.8160 77° East 491 565 37,000  Level FlightAware ADS-B
Wed 05:04:57 PM 45.5320 -97.6410 78° East 488 562 37,000  Level FlightAware ADS-B
Wed 05:05:42 PM 45.5510 -97.5210 77° East 488 562 37,000  Level FlightAware ADS-B
Wed 05:06:25 PM 45.5740 -97.3630 78° East 487 560 37,000  Level FlightAware ADS-B
Wed 05:07:04 PM 45.5910 -97.2590 77° East 487 560 37,000  Level FlightAware ADS-B
Wed 05:08:06 PM 45.6180 -97.0930 77° East 487 560 37,000  Level FlightAware ADS-B
Wed 05:08:41 PM 45.6330 -97.0000 77° East 487 560 37,000  Level FlightAware ADS-B
Wed 05:09:27 PM 45.6590 -96.7880 80° East 491 565 37,000  Level FlightAware ADS-B
Wed 05:10:09 PM 45.6790 -96.6540 78° East 491 565 37,000  Level FlightAware ADS-B
Wed 05:10:53 PM 45.6990 -96.5160 78° East 490 564 37,000  Level FlightAware ADS-B
Wed 05:11:50 PM 45.7240 -96.3390 79° East 489 563 37,000  Level FlightAware ADS-B
Wed 05:12:33 PM 45.7440 -96.1970 79° East 489 563 37,000 145 Level FlightAware ADS-B
Wed 05:13:13 PM 45.7610 -96.0690 79° East 490 564 37,200 825 Climbing FlightAware ADS-B
Wed 05:13:53 PM 45.7790 -95.9450 78° East 483 556 38,100 929 Climbing FlightAware ADS-B
Wed 05:14:37 PM 45.7980 -95.8060 79° East 486 559 38,500 540 Climbing FlightAware ADS-B
Wed 05:15:33 PM 45.8220 -95.6290 79° East 490 564 39,000 326 Climbing FlightAware ADS-B
Wed 05:16:09 PM 45.8370 -95.5150 79° East 492 566 39,000  Level FlightAware ADS-B
Wed 05:16:53 PM 45.8550 -95.3750 79° East 494 568 39,000  Level FlightAware ADS-B
Wed 05:17:39 PM 45.8750 -95.2250 79° East 493 567 39,000  Level FlightAware ADS-B
Wed 05:18:13 PM 45.8900 -95.1160 79° East 493 567 39,000  Level FlightAware ADS-B
Wed 05:19:03 PM 45.9100 -94.9550 80° East 493 567 39,000  Level FlightAware ADS-B
Wed 05:19:43 PM 45.9260 -94.8300 80° East 494 568 39,000  Level FlightAware ADS-B
Wed 05:20:27 PM 45.9440 -94.6870 80° East 493 567 39,000  Level FlightAware ADS-B
Wed 05:21:07 PM 45.9600 -94.5580 80° East 495 570 39,000  Level FlightAware ADS-B
Wed 05:21:45 PM 45.9760 -94.4340 79° East 495 570 39,000  Level FlightAware ADS-B
Wed 05:22:31 PM 45.9940 -94.2860 80° East 496 571 39,000  Level FlightAware ADS-B
Wed 05:23:13 PM 46.0100 -94.1510 80° East 496 571 39,000  Level FlightAware ADS-B
Wed 05:23:57 PM 46.0270 -94.0100 80° East 495 570 39,000  Level FlightAware ADS-B
Wed 05:24:37 PM 46.0430 -93.8790 80° East 494 568 39,000  Level FlightAware ADS-B
Wed 05:25:17 PM 46.0580 -93.7490 81° East 493 567 39,000  Level FlightAware ADS-B
Wed 05:26:03 PM 46.0750 -93.6000 81° East 492 566 39,000  Level FlightAware ADS-B
Wed 05:26:45 PM 46.0910 -93.4640 80° East 492 566 39,000  Level FlightAware ADS-B
Wed 05:27:23 PM 46.1050 -93.3440 80° East 491 565 39,000  Level FlightAware ADS-B
Wed 05:28:07 PM 46.1210 -93.2010 81° East 489 563 39,000  Level FlightAware ADS-B
Wed 05:28:51 PM 46.1370 -93.0590 81° East 488 562 39,000  Level FlightAware ADS-B
Wed 05:29:31 PM 46.1510 -92.9320 81° East 486 559 39,000  Level FlightAware ADS-B
Wed 05:30:15 PM 46.1660 -92.7920 81° East 484 557 39,000  Level FlightAware ADS-B
Wed 05:30:55 PM 46.1800 -92.6640 81° East 483 556 39,000  Level FlightAware ADS-B
Wed 05:31:37 PM 46.1930 -92.5360 82° East 483 556 39,000  Level FlightAware ADS-B
Wed 05:32:21 PM 46.2090 -92.3910 81° East 482 555 39,000  Level FlightAware ADS-B
Wed 05:32:55 PM 46.2140 -92.2830 86° East 484 557 39,000  Level FlightAware ADS-B
Wed 05:33:43 PM 46.2070 -92.1260 94° East 484 557 39,000  Level FlightAware ADS-B
Wed 05:34:24 PM 46.1990 -91.9970 95° East 484 557 39,000  Level FlightAware ADS-B
Wed 05:35:09 PM 46.1900 -91.8530 95° East 483 556 39,000  Level FlightAware ADS-B
Wed 05:35:49 PM 46.1820 -91.7230 95° East 484 557 39,000  Level FlightAware ADS-B
Wed 05:36:31 PM 46.1740 -91.5920 95° East 484 557 39,000  Level FlightAware ADS-B
Wed 05:37:13 PM 46.1650 -91.4550 95° East 483 556 39,000  Level FlightAware ADS-B
Wed 05:37:57 PM 46.1560 -91.3160 95° East 483 556 39,000  Level FlightAware ADS-B
Wed 05:38:37 PM 46.1470 -91.1880 96° East 484 557 39,000  Level FlightAware ADS-B
Wed 05:39:21 PM 46.1370 -91.0470 96° East 484 557 39,000  Level FlightAware ADS-B
Wed 05:40:02 PM 46.1280 -90.9160 96° East 484 557 39,000  Level FlightAware ADS-B
Wed 05:40:45 PM 46.1180 -90.7780 96° East 484 557 39,000  Level FlightAware ADS-B
Wed 05:41:25 PM 46.1090 -90.6500 96° East 485 558 39,000  Level FlightAware ADS-B
Wed 05:42:01 PM 46.1000 -90.5330 96° East 485 558 39,000  Level FlightAware ADS-B
Wed 05:42:49 PM 46.0890 -90.3780 96° East 484 557 39,000  Level FlightAware ADS-B
Wed 05:43:33 PM 46.0780 -90.2410 97° East 484 557 39,000  Level FlightAware ADS-B
Wed 05:44:15 PM 46.0680 -90.1060 96° East 485 558 39,000  Level FlightAware ADS-B
Wed 05:44:55 PM 46.0580 -89.9750 96° East 484 557 39,000  Level FlightAware ADS-B
Wed 05:45:53 PM 46.0430 -89.7920 97° East 484 557 39,000  Level FlightAware ADS-B
Wed 05:46:35 PM 46.0320 -89.6580 97° East 483 556 39,000  Level FlightAware ADS-B
Wed 05:47:17 PM 46.0210 -89.5240 97° East 483 556 39,000  Level FlightAware ADS-B
Wed 05:47:56 PM 46.0110 -89.4040 97° East 482 555 39,000  Level FlightAware ADS-B
Wed 05:48:41 PM 46.0000 -89.2750 97° East 482 555 39,000  Level FlightAware ADS-B
Wed 05:49:20 PM 45.9880 -89.1340 97° East 482 555 39,000  Level FlightAware ADS-B
Wed 05:50:00 PM 45.9770 -89.0080 97° East 482 555 39,000  Level FlightAware ADS-B
Wed 05:50:28 PM 45.9690 -88.9170 97° East 483 556 39,000  Level FlightAware ADS-B
Wed 05:51:02 PM 45.9590 -88.8090 98° East 483 556 39,000  Level FlightAware ADS-B
Wed 05:51:50 PM 45.9460 -88.6570 97° East 485 558 39,000  Level FlightAware ADS-B
Wed 05:52:28 PM 45.9350 -88.5390 98° East 485 558 39,000  Level FlightAware ADS-B
Wed 05:53:36 PM 45.9150 -88.3190 97° East 487 560 39,000  Level FlightAware ADS-B
Wed 05:54:38 PM 45.8980 -88.1350 97° East 487 560 39,000  Level FlightAware ADS-B
Wed 05:55:15 PM 45.8890 -88.0340 97° East 487 560 39,000  Level FlightAware ADS-B
Wed 05:55:54 PM 45.8800 -87.9270 97° East 487 560 39,000  Level FlightAware ADS-B
Wed 05:56:42 PM 45.8690 -87.7960 97° East 487 560 39,000  Level FlightAware ADS-B
Wed 05:57:21 PM 45.8600 -87.6900 97° East 487 560 39,000  Level FlightAware ADS-B
Wed 05:58:09 PM 45.8480 -87.5590 97° East 487 560 39,000  Level FlightAware ADS-B
Wed 05:58:48 PM 45.8390 -87.4520 97° East 487 560 39,000  Level FlightAware ADS-B
Wed 05:59:46 PM 45.8260 -87.2940 97° East 487 560 39,000  Level FlightAware ADS-B
Wed 06:00:38 PM 45.8140 -87.1520 97° East 487 560 39,000  Level FlightAware ADS-B
Wed 06:01:25 PM 45.8030 -87.0240 97° East 487 560 39,000  Level FlightAware ADS-B
Wed 06:02:01 PM 45.7940 -86.9260 97° East 487 560 39,000  Level FlightAware ADS-B
Wed 06:02:44 PM 45.7350 -86.5540 103° East 499 574 39,000  Level FlightAware ADS-B
Wed 06:03:16 PM 45.7230 -86.4520 100° East 499 574 39,000  Level FlightAware ADS-B
Wed 06:03:56 PM 45.7080 -86.3180 99° East 500 575 39,000  Level FlightAware ADS-B
Wed 06:04:38 PM 45.6930 -86.1800 99° East 500 575 39,000  Level FlightAware ADS-B
Wed 06:05:18 PM 45.6780 -86.0540 100° East 500 575 39,000  Level FlightAware ADS-B
Wed 06:06:02 PM 45.6620 -85.9100 99° East 500 575 39,000  Level FlightAware ADS-B
Wed 06:06:44 PM 45.6450 -85.7700 100° East 501 577 39,000  Level FlightAware ADS-B
Wed 06:07:29 PM 45.6290 -85.6260 99° East 502 578 39,000  Level FlightAware ADS-B
Wed 06:08:09 PM 45.6130 -85.4930 100° East 502 578 39,000  Level FlightAware ADS-B
Wed 06:08:51 PM 45.5960 -85.3560 100° East 503 579 39,000  Level FlightAware ADS-B
Wed 06:09:31 PM 45.5800 -85.2260 100° East 503 579 39,000  Level FlightAware ADS-B
Wed 06:10:13 PM 45.5640 -85.0900 99° East 503 579 39,000  Level FlightAware ADS-B
Wed 06:11:37 PM 45.5290 -84.8170 100° East 503 579 39,000  Level FlightAware ADS-B
Wed 06:12:16 PM 45.5130 -84.6900 100° East 505 581 39,000  Level FlightAware ADS-B
Wed 06:12:57 PM 45.4960 -84.5540 100° East 506 582 39,000  Level FlightAware ADS-B
Wed 06:13:39 PM 45.4780 -84.4190 101° East 507 583 39,000  Level FlightAware ADS-B
Wed 06:14:23 PM 45.4590 -84.2730 100° East 508 585 39,000  Level FlightAware ADS-B
Wed 06:15:03 PM 45.4420 -84.1410 100° East 508 585 39,000  Level FlightAware ADS-B
Wed 06:15:45 PM 45.4240 -84.0060 101° East 509 586 39,000  Level FlightAware ADS-B
Wed 06:16:29 PM 45.4040 -83.8580 101° East 510 587 39,000  Level FlightAware ADS-B
Wed 06:17:11 PM 45.3860 -83.7220 101° East 510 587 39,000  Level FlightAware ADS-B
Wed 06:17:49 PM 45.3680 -83.5960 101° East 511 588 39,000  Level FlightAware ADS-B
Wed 06:18:37 PM 45.3470 -83.4390 101° East 513 590 39,000  Level FlightAware ADS-B
Wed 06:19:19 PM 45.3270 -83.2990 101° East 514 592 39,000  Level FlightAware ADS-B
Wed 06:19:59 PM 45.3090 -83.1660 101° East 514 592 39,000  Level FlightAware ADS-B
Wed 06:20:43 PM 45.2880 -83.0250 102° East 514 592 39,000  Level FlightAware ADS-B
Wed 06:21:19 PM 45.2710 -82.9030 101° East 514 592 39,000  Level FlightAware ADS-B
Wed 06:22:07 PM 45.2480 -82.7480 102° East 514 592 39,000  Level FlightAware ADS-B
Wed 06:22:47 PM 45.2290 -82.6120 101° East 514 592 39,000  Level FlightAware ADS-B
Wed 06:23:29 PM 45.2070 -82.4780 103° East 515 593 39,000  Level FlightAware ADS-B
Wed 06:24:09 PM 45.1800 -82.3460 106° East 516 594 39,000  Level FlightAware ADS-B
Wed 06:24:53 PM 45.1490 -82.2040 107° East 517 595 39,000  Level FlightAware ADS-B
Wed 06:26:05 PM 45.0970 -81.9750 108° East 519 597 39,000  Level FlightAware ADS-B
Wed 06:26:44 PM 45.0690 -81.8490 107° East 520 598 39,000  Level FlightAware ADS-B
Wed 06:27:24 PM 45.0390 -81.7170 108° East 521 600 39,000  Level FlightAware ADS-B
Wed 06:28:10 PM 45.0050 -81.5690 108° East 524 603 39,000  Level FlightAware ADS-B
Wed 06:28:46 PM 44.9800 -81.4580 108° East 524 603 39,000  Level FlightAware ADS-B
Wed 06:29:31 PM 44.9460 -81.3130 108° East 525 604 39,000  Level FlightAware ADS-B
Wed 06:30:25 PM 44.9180 -81.1920 108° East 525 604 39,000  Level FlightAware ADS-B
Wed 06:31:11 PM 44.8700 -80.9870 108° East 526 605 39,000  Level FlightAware ADS-B
Wed 06:31:46 PM 44.8440 -80.8760 108° East 525 604 39,000  Level FlightAware ADS-B
Wed 06:32:26 PM 44.8130 -80.7440 108° East 526 605 39,000  Level FlightAware ADS-B
Wed 06:33:11 PM 44.7780 -80.5980 109° East 525 604 39,000  Level FlightAware ADS-B
Wed 06:33:51 PM 44.7490 -80.4770 109° East 525 604 39,000  Level FlightAware ADS-B
Wed 06:34:46 PM 44.7050 -80.2940 109° East 523 602 39,000  Level FlightAware ADS-B
Wed 06:35:26 PM 44.6750 -80.1740 109° East 522 601 39,000  Level FlightAware ADS-B
Wed 06:36:11 PM 44.6380 -80.0230 109° East 519 597 39,000  Level FlightAware ADS-B
Wed 06:37:01 PM 44.5990 -79.8620 109° East 518 596 39,000  Level FlightAware ADS-B
Wed 06:37:46 PM 44.5630 -79.7190 109° East 518 596 39,000  Level FlightAware ADS-B
Wed 06:38:28 PM 44.5300 -79.5960 111° Southeast 517 595 39,000  Level FlightAware ADS-B
Wed 06:39:11 PM 44.4940 -79.4560 110° East 516 594 39,000  Level FlightAware ADS-B
Wed 06:39:51 PM 44.4610 -79.3340 111° Southeast 514 592 39,000  Level FlightAware ADS-B
Wed 06:40:36 PM 44.4240 -79.1920 110° East 514 592 39,000  Level FlightAware ADS-B
Wed 06:41:16 PM 44.3900 -79.0660 111° Southeast 513 590 39,000  Level FlightAware ADS-B
Wed 06:42:01 PM 44.3530 -78.9260 110° East 513 590 39,000  Level FlightAware ADS-B
Wed 06:42:41 PM 44.3190 -78.8020 111° Southeast 513 590 39,000  Level FlightAware ADS-B
Wed 06:43:28 PM 44.2810 -78.6630 111° Southeast 514 592 39,000  Level FlightAware ADS-B
Wed 06:44:06 PM 44.2480 -78.5390 110° East 514 592 39,000  Level FlightAware ADS-B
Wed 06:44:48 PM 44.2110 -78.4070 111° Southeast 514 592 39,000  Level FlightAware ADS-B
Wed 06:45:26 PM 44.1810 -78.2950 110° East 514 592 39,000  Level FlightAware ADS-B
Wed 06:46:11 PM 44.1410 -78.1530 111° Southeast 515 593 39,000  Level FlightAware ADS-B
Wed 06:46:56 PM 44.1050 -78.0220 111° Southeast 516 594 39,000  Level FlightAware ADS-B
Wed 06:47:36 PM 44.0690 -77.8930 111° Southeast 516 594 39,000  Level FlightAware ADS-B
Wed 06:48:16 PM 44.0360 -77.7750 111° Southeast 516 594 39,000  Level FlightAware ADS-B
Wed 06:48:56 PM 44.0000 -77.6470 111° Southeast 515 593 39,000  Level FlightAware ADS-B
Wed 06:49:41 PM 43.9590 -77.5050 112° Southeast 517 595 39,000  Level FlightAware ADS-B
Wed 06:50:21 PM 43.9260 -77.3890 112° Southeast 518 596 39,000  Level FlightAware ADS-B
Wed 06:51:07 PM 43.8840 -77.2430 112° Southeast 520 598 39,000  Level FlightAware ADS-B
Wed 06:51:46 PM 43.8480 -77.1200 112° Southeast 521 600 39,000  Level FlightAware ADS-B
Wed 06:52:26 PM 43.8140 -77.0010 112° Southeast 522 601 39,000  Level FlightAware ADS-B
Wed 06:53:11 PM 43.7740 -76.8630 112° Southeast 522 601 39,000  Level FlightAware ADS-B
Wed 06:53:56 PM 43.7270 -76.7280 116° Southeast 526 605 39,000  Level FlightAware ADS-B
Wed 06:54:31 PM 43.6690 -76.6370 131° Southeast 525 604 39,000 -209 Level FlightAware ADS-B
Wed 06:55:22 PM 43.5750 -76.5110 136° Southeast 531 611 38,700 -839 Descending FlightAware ADS-B
Wed 06:56:04 PM 43.5010 -76.4140 136° Southeast 533 613 37,700 -1,214 Descending FlightAware ADS-B
Wed 06:56:46 PM 43.4250 -76.3140 136° Southeast 550 633 37,000 -500 Descending FlightAware ADS-B
Wed 06:57:28 PM 43.3460 -76.2110 137° Southeast 557 641 37,000  Level FlightAware ADS-B
Wed 06:58:09 PM 43.2740 -76.1160 136° Southeast 555 639 37,000  Level FlightAware ADS-B
Wed 06:58:50 PM 43.1940 -76.0120 137° Southeast 552 635 37,000  Level FlightAware ADS-B
Wed 06:59:34 PM 43.1130 -75.9080 137° Southeast 550 633 37,000  Level FlightAware ADS-B
Wed 07:00:06 PM 43.0550 -75.8320 136° Southeast 548 631 37,000  Level FlightAware ADS-B
Wed 07:01:06 PM 42.9440 -75.6880 136° Southeast 546 628 37,000  Level FlightAware ADS-B
Wed 07:01:52 PM 42.8610 -75.5820 137° Southeast 544 626 37,000 -545 Level FlightAware ADS-B
Wed 07:02:34 PM 42.7830 -75.4820 137° Southeast 549 632 36,200 -1,605 Descending FlightAware ADS-B
Wed 07:03:18 PM 42.6990 -75.3760 137° Southeast 569 655 34,700 -1,643 Descending FlightAware ADS-B
Wed 07:03:58 PM 42.6230 -75.2800 137° Southeast 571 657 33,900 -1,259 Descending FlightAware ADS-B
Wed 07:04:39 PM 42.5440 -75.1800 137° Southeast 578 665 33,000 -1,624 Descending FlightAware ADS-B
Wed 07:05:23 PM 42.4600 -75.0740 137° Southeast 570 656 31,600 -1,091 Descending FlightAware ADS-B
Wed 07:06:07 PM 42.3870 -74.9790 136° Southeast 568 654 31,400 -150 Descending FlightAware ADS-B
Wed 07:06:43 PM 42.3290 -74.9040 136° Southeast 568 654 31,400 -940 Level FlightAware ADS-B
Wed 07:09:44 PM 41.9790 -74.4700 137° Southeast 538 619 28,000 -911 Descending FlightAware ADS-B
Wed 07:10:27 PM 41.9150 -74.3480 125° Southeast 542 624 28,000 -674 Level FlightAware ADS-B
Wed 07:11:13 PM 41.8310 -74.2400 136° Southeast 534 615 27,000 -1,931 Descending FlightAware ADS-B
Wed 07:11:54 PM 41.7460 -74.1890 156° South 508 585 25,200 -2,341 Descending FlightAware ADS-B
Wed 07:12:35 PM 41.6500 -74.1550 165° South 508 585 23,800 -1,976 Descending FlightAware ADS-B
Wed 07:13:16 PM 41.5600 -74.1240 166° South 493 567 22,500 -1,906 Descending FlightAware ADS-B
Wed 07:14:00 PM 41.4630 -74.0910 166° South 484 557 21,100 -1,807 Descending FlightAware ADS-B
Wed 07:14:39 PM 41.3760 -74.0700 170° South 463 533 20,000 -796 Descending FlightAware ADS-B
Wed 07:15:38 PM 41.2520 -74.0830 185° South 453 521 19,800 -119 Descending FlightAware ADS-B
Wed 07:16:20 PM 41.1710 -74.0960 187° South 403 464 19,800 -217 Level FlightAware ADS-B
Wed 07:17:01 PM 41.1000 -74.1070 187° South 363 418 19,500 -640 Descending FlightAware ADS-B
Wed 07:17:35 PM 41.0415 -74.1160 187° South 361 415 19,000 -469 Descending FlightAware ADS-B
Wed 07:18:05 PM 40.9907 -74.1238 187° South 363 418 19,000  Level FlightAware ADS-B
Wed 07:18:37 PM 40.9381 -74.1264 182° South 374 430 19,000  Level FlightAware ADS-B
Wed 07:18:43 PM 40.9280 -74.1228 165° South 378 435 19,000  Level FlightAware ADS-B
Wed 07:18:48 PM 40.9188 -74.1177 157° South 381 438 19,000  Level FlightAware ADS-B
Wed 07:18:54 PM 40.9102 -74.1111 150° Southeast 383 441 19,000 -500 Level FlightAware ADS-B
Wed 07:19:00 PM 40.9015 -74.1024 143° Southeast 383 441 18,900 -1,143 Descending FlightAware ADS-B
Wed 07:19:15 PM 40.8847 -74.0759 130° Southeast 380 437 18,600 -1,467 Descending FlightAware ADS-B
Wed 07:19:45 PM 40.8562 -74.0171 123° Southeast 380 437 17,800 -1,606 Descending FlightAware ADS-B
Wed 07:20:26 PM 40.8180 -73.9370 122° Southeast 377 434 16,700 -1,794 Descending FlightAware ADS-B
Wed 07:21:22 PM 40.7680 -73.8300 122° Southeast 368 423 14,900 -1,891 Descending FlightAware ADS-B
Wed 07:21:58 PM 40.7470 -73.7570 111° Southeast 361 415 13,800 -1,373 Descending FlightAware ADS-B
Wed 07:22:45 PM 40.7190 -73.6600 111° Southeast 349 402 13,000 -712 Descending FlightAware ADS-B
Wed 07:22:57 PM 40.7080 -73.6380 123° Southeast 352 405 13,100 200 Climbing FlightAware ADS-B
Wed 07:23:15 PM 40.6850 -73.6150 143° Southeast 351 404 13,100 -1,158 Level FlightAware ADS-B
Wed 07:23:54 PM 40.6260 -73.5910 163° South 336 387 12,000 -1,974 Descending FlightAware ADS-B
Wed 07:24:31 PM 40.5700 -73.5790 171° South 324 373 10,600 -2,239 Descending FlightAware ADS-B
Wed 07:25:01 PM 40.5280 -73.5930 194° South 304 350 9,500 -2,300 Descending FlightAware ADS-B
Wed 07:25:31 PM 40.4900 -73.6130 202° Southwest 298 343 8,300 -2,136 Descending FlightAware ADS-B
Wed 07:26:00 PM 40.4550 -73.6320 202° Southwest 289 333 7,400 -2,000 Descending FlightAware ADS-B
Wed 07:26:13 PM 40.4380 -73.6420 204° Southwest 281 323 6,900 -2,276 Descending FlightAware ADS-B
Wed 07:26:29 PM 40.4230 -73.6610 224° Southwest 269 310 6,300 -2,182 Descending FlightAware ADS-B
Wed 07:26:57 PM 40.4020 -73.6950 231° Southwest 262 302 5,300 -1,964 Descending FlightAware ADS-B
Wed 07:27:24 PM 40.3820 -73.7290 232° Southwest 250 288 4,500 -1,393 Descending FlightAware ADS-B
Wed 07:27:53 PM 40.3630 -73.7620 233° Southwest 224 258 4,000 -1,034 Descending FlightAware ADS-B
Wed 07:28:22 PM 40.3460 -73.7910 232° Southwest 208 239 3,500 -1,231 Descending FlightAware ADS-B
Wed 07:28:32 PM 40.3400 -73.8030 237° Southwest 208 239 3,200 -1,000 Descending FlightAware ADS-B
Wed 07:28:46 PM 40.3370 -73.8190 256° West 208 239 3,100 -136 Descending FlightAware ADS-B
Wed 07:29:16 PM 40.3390 -73.8560 274° West 208 239 3,100  Level FlightAware ADS-B
Wed 07:29:30 PM 40.3420 -73.8740 282° West 206 237 3,100  Level FlightAware ADS-B
Wed 07:29:46 PM 40.3510 -73.8890 308° West 208 239 3,100  Level FlightAware ADS-B
Wed 07:29:58 PM 40.3610 -73.8970 329° Northwest 209 241 3,100  Level FlightAware ADS-B
Wed 07:30:26 PM 40.3830 -73.9130 331° Northwest 211 243 3,100  Level FlightAware ADS-B
Wed 07:30:55 PM 40.4120 -73.9180 353° North 217 250 3,100  Level FlightAware ADS-B
Wed 07:31:59 PM 40.4700 -73.9040 10° North 191 220 3,100  Level FlightAware ADS-B
Wed 07:32:15 PM 40.4820 -73.8940 32° Northeast 193 222 3,100 -409 Level FlightAware ADS-B
Wed 07:32:43 PM 40.5030 -73.8780 30° Northeast 196 226 2,800 -889 Descending FlightAware ADS-B
Wed 07:33:09 PM 40.5250 -73.8620 29° Northeast 196 226 2,300 -1,000 Descending FlightAware ADS-B
Wed 07:33:25 PM 40.5360 -73.8520 35° Northeast 190 219 2,100 -947 Descending FlightAware ADS-B
Wed 07:33:47 PM 40.5530 -73.8400 28° Northeast 180 207 1,700 -1,000 Descending FlightAware ADS-B
Wed 07:34:19 PM 40.5740 -73.8230 32° Northeast 155 178 1,200 -818 Descending FlightAware ADS-B
Wed 07:34:31 PM 40.5810 -73.8170 33° Northeast 142 163 1,100 -714 Descending FlightAware ADS-B
Wed 07:35:01 PM 40.5970 -73.8050 30° Northeast 127 146 700 -689 Descending FlightAware ADS-B
Wed 07:35:32 PM 40.6130 -73.7930 30° Northeast 126 145 400 -581 Descending FlightAware ADS-B
Wed 07:36:05 PM 40.6300 -73.7800 30° Northeast 105 121 -727 Descending FlightAware ADS-B
Wed 07:36:34 PM 40.6360 -73.7750 32° Northeast 34 39  Level FlightAware ADS-B
Wed 07:37:16 PM 40.6380 -73.7750 360° North 17 20  Level FlightAware ADS-B
Wed 07:37:46 PM 40.6390 -73.7740 37° Northeast 17 20  Level FlightAware ADS-B
Wed 07:39:20 PM 40.6400 -73.7730 37° Northeast 18 21  Level FlightAware ADS-B
Wed 07:40:04 PM 40.6400 -73.7740 270° West  Level FlightAware ADS-B
Wed 07:42:08 PM 40.6390 -73.7750 180° South 27 31  Level FlightAware ADS-B
Wed 07:42:35 PM 40.6380 -73.7760 217° Southwest 2 2  Level FlightAware ADS-B

Login

Don't have an account? Register now (free) for customized features, flight alerts, and more!